createdAt,value
2022-11-05T00:00:45.541Z,17.08
2022-11-05T00:03:49.574Z,19.83
2022-11-05T00:07:04.005Z,18.17
2022-11-05T00:09:49.932Z,18.53
2022-11-05T00:12:53.674Z,19.95
2022-11-05T00:15:58.158Z,17.80
2022-11-05T00:18:43.106Z,16.35
2022-11-05T00:21:46.735Z,17.77
2022-11-05T00:24:50.543Z,21.07
2022-11-05T00:27:35.588Z,17.88
2022-11-05T00:30:26.163Z,18.20
2022-11-05T00:33:11.453Z,18.08
2022-11-05T00:35:56.649Z,15.90
2022-11-05T00:38:41.282Z,17.93
2022-11-05T00:41:26.200Z,16.80
2022-11-05T00:44:29.674Z,15.45
2022-11-05T00:47:33.682Z,14.93
2022-11-05T00:50:21.289Z,13.90
2022-11-05T00:53:06.881Z,19.33
2022-11-05T00:55:51.991Z,13.98
2022-11-05T00:58:36.840Z,15.43
2022-11-05T01:01:21.767Z,17.63
2022-11-05T01:04:07.092Z,15.65
2022-11-05T01:06:51.913Z,14.77
2022-11-05T01:09:36.664Z,19.08
2022-11-05T01:12:21.551Z,19.40
2022-11-05T01:15:06.884Z,12.40
2022-11-05T01:17:52.293Z,16.38
2022-11-05T01:20:37.103Z,17.00
2022-11-05T01:23:22.210Z,13.10
2022-11-05T01:26:07.298Z,15.85
2022-11-05T01:28:57.412Z,17.50
2022-11-05T01:31:42.248Z,17.40
2022-11-05T01:34:27.038Z,18.97
2022-11-05T01:37:11.907Z,13.73
2022-11-05T01:39:56.894Z,15.70
2022-11-05T01:42:42.026Z,18.25
2022-11-05T01:45:28.255Z,14.75
2022-11-05T01:48:28.152Z,16.90
2022-11-05T01:51:17.397Z,14.25
2022-11-05T01:54:07.928Z,15.55
2022-11-05T01:56:58.020Z,17.80
2022-11-05T01:59:48.031Z,16.15
2022-11-05T02:02:33.150Z,14.63
2022-11-05T02:05:18.152Z,15.65
2022-11-05T02:08:03.493Z,16.27
2022-11-05T02:10:48.602Z,19.75
2022-11-05T02:13:33.635Z,15.45
2022-11-05T02:16:39.416Z,17.43
2022-11-05T02:20:01.816Z,15.88
2022-11-05T02:23:19.184Z,15.85
2022-11-05T02:26:35.081Z,15.02
2022-11-05T02:29:45.823Z,17.50
2022-11-05T02:32:47.770Z,18.07
2022-11-05T02:35:54.261Z,15.82
2022-11-05T02:39:10.124Z,15.88
2022-11-05T02:42:18.229Z,16.30
2022-11-05T02:45:30.981Z,19.05
2022-11-05T02:48:53.504Z,17.30
2022-11-05T02:51:58.350Z,16.02
2022-11-05T02:54:53.838Z,16.02
2022-11-05T02:57:44.535Z,15.85
2022-11-05T03:01:01.841Z,16.23
2022-11-05T03:03:50.076Z,17.13
2022-11-05T03:07:10.001Z,13.50
2022-11-05T03:10:25.218Z,14.63
2022-11-05T03:13:30.079Z,16.88
2022-11-05T03:16:26.572Z,15.93
2022-11-05T03:19:20.256Z,16.83
2022-11-05T03:22:10.771Z,15.45
2022-11-05T03:25:00.341Z,14.52
2022-11-05T03:27:50.197Z,15.80
2022-11-05T03:30:37.623Z,16.05
2022-11-05T03:33:27.366Z,18.10
2022-11-05T03:36:19.089Z,15.90
2022-11-05T03:39:07.552Z,15.27
2022-11-05T03:41:53.963Z,13.48
2022-11-05T03:44:45.137Z,15.73
2022-11-05T03:47:37.792Z,16.53
2022-11-05T03:50:41.606Z,14.45
2022-11-05T03:53:30.191Z,12.25
2022-11-05T03:56:26.650Z,15.43
2022-11-05T03:59:12.502Z,13.23
2022-11-05T04:01:58.379Z,13.07
2022-11-05T04:04:43.601Z,13.68
2022-11-05T04:07:47.308Z,14.55
2022-11-05T04:10:51.046Z,12.68
2022-11-05T04:13:36.142Z,17.23
2022-11-05T04:16:56.518Z,13.27
2022-11-05T04:20:02.523Z,13.88
2022-11-05T04:23:06.252Z,12.27
2022-11-05T04:25:51.619Z,15.65
2022-11-05T04:29:09.101Z,15.63
2022-11-05T04:31:54.513Z,14.40
2022-11-05T04:34:39.581Z,12.98
2022-11-05T04:37:24.580Z,15.07
2022-11-05T04:40:09.881Z,14.65
2022-11-05T04:42:56.114Z,14.57
2022-11-05T04:45:41.358Z,14.73
2022-11-05T04:48:26.196Z,15.10
2022-11-05T04:51:11.180Z,13.13
2022-11-05T04:53:55.980Z,15.85
2022-11-05T04:56:40.913Z,14.77
2022-11-05T04:59:25.725Z,14.50
2022-11-05T05:02:10.720Z,17.27
2022-11-05T05:04:55.457Z,16.17
2022-11-05T05:07:41.832Z,15.45
2022-11-05T05:10:26.670Z,16.80
2022-11-05T05:13:11.739Z,14.17
2022-11-05T05:15:58.450Z,16.58
2022-11-05T05:18:46.216Z,16.08
2022-11-05T05:21:40.924Z,13.98
2022-11-05T05:24:25.904Z,14.55
2022-11-05T05:27:10.884Z,15.87
2022-11-05T05:29:59.480Z,13.32
2022-11-05T05:32:44.347Z,12.15
2022-11-05T05:35:29.452Z,14.85
2022-11-05T05:38:14.570Z,14.73
2022-11-05T05:41:00.122Z,12.87
2022-11-05T05:43:45.166Z,12.32
2022-11-05T05:46:30.133Z,13.43
2022-11-05T05:49:15.113Z,16.63
2022-11-05T05:51:59.892Z,12.65
2022-11-05T05:54:44.937Z,13.87
2022-11-05T05:57:29.710Z,11.18
2022-11-05T06:00:14.925Z,11.55
2022-11-05T06:02:59.788Z,12.77
2022-11-05T06:05:44.741Z,11.80
2022-11-05T06:08:30.260Z,13.50
2022-11-05T06:11:15.417Z,14.20
2022-11-05T06:14:00.343Z,10.98
2022-11-05T06:16:45.178Z,13.50
2022-11-05T06:19:29.930Z,12.07
2022-11-05T06:22:14.898Z,12.50
2022-11-05T06:24:59.665Z,12.07
2022-11-05T06:27:44.546Z,12.73
2022-11-05T06:30:29.425Z,11.30
2022-11-05T06:33:14.343Z,9.82
2022-11-05T06:36:00.347Z,9.10
2022-11-05T06:38:45.593Z,11.18
2022-11-05T06:41:30.730Z,15.05
2022-11-05T06:44:15.608Z,15.25
2022-11-05T06:47:00.600Z,10.18
2022-11-05T06:49:46.198Z,9.03
2022-11-05T06:52:31.420Z,9.23
2022-11-05T06:55:16.186Z,10.55
2022-11-05T06:58:01.137Z,11.45
2022-11-05T07:00:46.077Z,8.98
2022-11-05T07:03:31.398Z,13.87
2022-11-05T07:06:16.645Z,12.23
2022-11-05T07:09:01.493Z,11.70
2022-11-05T07:11:46.438Z,9.45
2022-11-05T07:14:31.026Z,12.60
2022-11-05T07:17:17.812Z,11.80
2022-11-05T07:20:03.909Z,12.27
2022-11-05T07:22:48.716Z,16.95
2022-11-05T07:25:34.063Z,18.10
2022-11-05T07:28:19.292Z,17.63
2022-11-05T07:31:04.327Z,13.17
2022-11-05T07:33:49.202Z,14.07
2022-11-05T07:36:34.058Z,16.70
2022-11-05T07:39:18.769Z,15.23
2022-11-05T07:42:03.692Z,13.18
2022-11-05T07:44:48.577Z,12.97
2022-11-05T07:47:33.401Z,13.38
2022-11-05T07:50:21.123Z,14.93
2022-11-05T07:53:10.452Z,13.15
2022-11-05T07:55:57.071Z,15.13
2022-11-05T07:58:42.300Z,9.77
2022-11-05T08:01:28.054Z,10.80
2022-11-05T08:04:13.326Z,10.52
2022-11-05T08:06:58.299Z,10.02
2022-11-05T08:09:43.068Z,15.38
2022-11-05T08:12:27.915Z,11.20
2022-11-05T08:15:12.642Z,10.45
2022-11-05T08:17:59.166Z,9.30
2022-11-05T08:20:45.277Z,17.20
2022-11-05T08:23:31.564Z,11.43
2022-11-05T08:26:16.441Z,8.97
2022-11-05T08:29:01.249Z,11.38
2022-11-05T08:31:46.046Z,9.90
2022-11-05T08:34:30.798Z,7.07
2022-11-05T08:37:15.636Z,11.60
2022-11-05T08:40:00.581Z,12.50
2022-11-05T08:42:45.443Z,7.38
2022-11-05T08:45:31.145Z,9.73
2022-11-05T08:48:18.001Z,7.35
2022-11-05T08:51:03.105Z,8.43
2022-11-05T08:53:48.164Z,7.73
2022-11-05T08:56:33.277Z,9.82
2022-11-05T08:59:18.257Z,8.52
2022-11-05T09:02:03.204Z,12.25
2022-11-05T09:04:48.634Z,10.70
2022-11-05T09:07:33.491Z,11.13
2022-11-05T09:10:18.671Z,6.68
2022-11-05T09:13:04.744Z,5.10
2022-11-05T09:15:50.358Z,6.85
2022-11-05T09:18:35.390Z,9.35
2022-11-05T09:21:20.425Z,9.03
2022-11-05T09:24:05.999Z,7.65
2022-11-05T09:26:51.076Z,10.82
2022-11-05T09:29:36.605Z,4.82
2022-11-05T09:32:23.079Z,11.68
2022-11-05T09:35:09.523Z,7.27
2022-11-05T09:37:59.727Z,11.00
2022-11-05T09:41:00.396Z,5.32
2022-11-05T09:43:55.783Z,11.35
2022-11-05T09:46:45.510Z,8.13
2022-11-05T09:49:39.978Z,4.93
2022-11-05T09:52:28.851Z,6.10
2022-11-05T09:55:26.144Z,4.68
2022-11-05T09:58:28.370Z,5.72
2022-11-05T10:01:22.764Z,10.55
2022-11-05T10:04:16.123Z,5.37
2022-11-05T10:07:05.678Z,10.60
2022-11-05T10:09:59.442Z,3.95
2022-11-05T10:12:53.122Z,3.95
2022-11-05T10:15:45.278Z,5.35
2022-11-05T10:18:34.391Z,4.33
2022-11-05T10:21:37.843Z,5.18
2022-11-05T10:24:25.514Z,4.43
2022-11-05T10:27:18.270Z,9.23
2022-11-05T10:30:04.373Z,5.88
2022-11-05T10:32:54.453Z,6.43
2022-11-05T10:35:49.007Z,5.95
2022-11-05T10:38:33.951Z,4.13
2022-11-05T10:41:44.844Z,8.65
2022-11-05T10:44:38.750Z,7.47
2022-11-05T10:47:51.681Z,3.47
2022-11-05T10:50:36.827Z,6.47
2022-11-05T10:53:34.024Z,6.25
2022-11-05T10:56:35.397Z,6.57
2022-11-05T10:59:25.130Z,5.70
2022-11-05T11:02:21.747Z,5.07
2022-11-05T11:05:08.517Z,3.22
2022-11-05T11:07:57.476Z,3.63
2022-11-05T11:10:50.182Z,3.47
2022-11-05T11:13:57.087Z,4.57
2022-11-05T11:16:44.233Z,3.13
2022-11-05T11:19:32.598Z,1.52
2022-11-05T11:22:20.254Z,3.67
2022-11-05T11:25:24.315Z,2.35
2022-11-05T11:28:18.574Z,4.95
2022-11-05T11:31:08.617Z,2.97
2022-11-05T11:34:04.415Z,3.53
2022-11-05T11:36:54.028Z,3.85
2022-11-05T11:39:40.156Z,3.47
2022-11-05T11:42:33.845Z,2.20
2022-11-05T11:45:24.527Z,2.30
2022-11-05T11:48:17.019Z,3.47
2022-11-05T11:51:34.127Z,2.40
2022-11-05T11:54:28.840Z,3.35
2022-11-05T11:57:26.527Z,1.85
2022-11-05T12:00:11.947Z,2.53
2022-11-05T12:03:02.809Z,2.58
2022-11-05T12:05:55.311Z,4.22
2022-11-05T12:09:05.192Z,2.67
2022-11-05T12:12:08.886Z,3.13
2022-11-05T12:15:15.133Z,5.43
2022-11-05T12:18:03.855Z,2.40
2022-11-05T12:21:12.830Z,5.00
2022-11-05T12:24:23.302Z,5.40
2022-11-05T12:27:36.388Z,4.03
2022-11-05T12:30:22.516Z,2.67
2022-11-05T12:33:23.624Z,2.38
2022-11-05T12:36:27.961Z,1.55
2022-11-05T12:39:42.343Z,1.95
2022-11-05T12:42:45.724Z,2.13
2022-11-05T12:45:47.225Z,0.83
2022-11-05T12:48:41.426Z,1.90
2022-11-05T12:51:38.462Z,2.53
2022-11-05T12:54:55.650Z,1.52
2022-11-05T12:57:45.351Z,2.05
2022-11-05T13:00:30.561Z,2.63
2022-11-05T13:03:37.112Z,1.52
2022-11-05T13:06:29.865Z,3.08
2022-11-05T13:09:25.355Z,2.03
2022-11-05T13:12:13.312Z,3.65
2022-11-05T13:15:05.221Z,6.53
2022-11-05T13:17:54.818Z,3.10
2022-11-05T13:20:45.858Z,3.15
2022-11-05T13:23:49.690Z,4.00
2022-11-05T13:26:46.531Z,7.80
2022-11-05T13:29:38.215Z,5.43
2022-11-05T13:32:32.032Z,4.07
2022-11-05T13:35:24.587Z,9.98
2022-11-05T13:38:39.919Z,4.30
2022-11-05T13:41:42.241Z,4.07
2022-11-05T13:44:52.377Z,6.90
2022-11-05T13:48:04.803Z,3.50
2022-11-05T13:51:07.789Z,4.43
2022-11-05T13:54:21.170Z,5.40
2022-11-05T13:57:38.398Z,4.22
2022-11-05T14:00:29.488Z,4.47
2022-11-05T14:03:19.983Z,6.78
2022-11-05T14:06:07.499Z,4.63
2022-11-05T14:08:58.570Z,5.03
2022-11-05T14:11:50.238Z,3.58
2022-11-05T14:14:45.393Z,3.23
2022-11-05T14:17:54.438Z,5.18
2022-11-05T14:20:46.384Z,4.93
2022-11-05T14:23:38.462Z,3.10
2022-11-05T14:26:28.361Z,2.75
2022-11-05T14:29:24.152Z,2.70
2022-11-05T14:32:21.481Z,6.10
2022-11-05T14:35:15.488Z,3.28
2022-11-05T14:38:00.336Z,4.90
2022-11-05T14:40:46.410Z,2.97
2022-11-05T14:43:33.137Z,4.27
2022-11-05T14:46:18.326Z,4.18
2022-11-05T14:49:09.293Z,4.15
2022-11-05T14:51:57.289Z,5.07
2022-11-05T14:54:50.441Z,4.82
2022-11-05T14:57:51.001Z,3.10
2022-11-05T15:00:46.976Z,3.38
2022-11-05T15:03:45.794Z,2.80
2022-11-05T15:06:47.974Z,3.38
2022-11-05T15:10:05.725Z,6.00
2022-11-05T15:13:02.125Z,4.30
2022-11-05T15:15:56.986Z,4.82
2022-11-05T15:18:51.984Z,3.60
2022-11-05T15:21:45.002Z,3.45
2022-11-05T15:24:37.985Z,2.92
2022-11-05T15:27:44.382Z,3.70
2022-11-05T15:30:35.990Z,4.63
2022-11-05T15:33:21.956Z,4.65
2022-11-05T15:36:17.993Z,6.78
2022-11-05T15:39:38.425Z,6.32
2022-11-05T15:42:33.992Z,6.33
2022-11-05T15:45:20.444Z,6.28
2022-11-05T15:48:24.002Z,4.53
2022-11-05T15:51:14.988Z,8.02
2022-11-05T15:54:28.981Z,4.32
2022-11-05T15:57:39.250Z,5.07
2022-11-05T16:00:27.756Z,4.13
2022-11-05T16:03:38.997Z,4.90
2022-11-05T16:06:52.044Z,4.20
2022-11-05T16:09:47.035Z,3.53
2022-11-05T16:12:42.000Z,5.00
2022-11-05T16:15:39.008Z,3.50
2022-11-05T16:18:37.012Z,3.10
2022-11-05T16:21:24.824Z,5.63
2022-11-05T16:24:29.532Z,4.82
2022-11-05T16:27:20.032Z,4.60
2022-11-05T16:30:12.013Z,3.72
2022-11-05T16:33:06.125Z,5.82
2022-11-05T16:35:58.004Z,6.18
2022-11-05T16:38:43.303Z,5.03
2022-11-05T16:41:35.018Z,3.90
2022-11-05T16:44:19.654Z,4.25
2022-11-05T16:47:11.039Z,4.68
2022-11-05T16:49:56.340Z,4.97
2022-11-05T16:52:48.025Z,7.20
2022-11-05T16:55:36.006Z,3.97
2022-11-05T16:58:30.030Z,6.30
2022-11-05T17:01:19.270Z,5.72
2022-11-05T17:04:11.005Z,5.35
2022-11-05T17:07:16.026Z,7.70
2022-11-05T17:10:08.007Z,4.70
2022-11-05T17:12:53.641Z,5.30
2022-11-05T17:15:45.010Z,5.35
2022-11-05T17:18:30.109Z,7.30
2022-11-05T17:21:22.043Z,6.47
2022-11-05T17:24:07.749Z,7.17
2022-11-05T17:26:59.050Z,5.22
2022-11-05T17:29:44.054Z,9.25
2022-11-05T17:32:36.096Z,6.45
2022-11-05T17:35:21.464Z,4.05
2022-11-05T17:38:13.070Z,6.93
2022-11-05T17:40:57.987Z,8.80
2022-11-05T17:43:50.069Z,8.65
2022-11-05T17:46:35.197Z,5.65
2022-11-05T17:49:27.136Z,4.93
2022-11-05T17:52:12.166Z,8.43
2022-11-05T17:55:04.011Z,9.43
2022-11-05T17:57:58.079Z,9.07
2022-11-05T18:00:44.406Z,6.07
2022-11-05T18:03:36.044Z,8.93
2022-11-05T18:06:41.071Z,7.83
2022-11-05T18:09:33.053Z,10.85
2022-11-05T18:12:17.880Z,8.32
2022-11-05T18:15:10.035Z,10.13
2022-11-05T18:17:55.174Z,9.40
2022-11-05T18:20:47.013Z,11.13
2022-11-05T18:23:32.511Z,9.88
2022-11-05T18:26:25.038Z,11.15
2022-11-05T18:29:16.041Z,10.52
2022-11-05T18:32:01.419Z,8.88
2022-11-05T18:34:53.030Z,10.87
2022-11-05T18:37:38.699Z,9.20
2022-11-05T18:40:30.082Z,7.90
2022-11-05T18:43:15.314Z,11.48
2022-11-05T18:46:07.047Z,8.25
2022-11-05T18:48:51.975Z,6.53
2022-11-05T18:51:44.043Z,6.55
2022-11-05T18:54:35.021Z,9.95
2022-11-05T18:57:23.358Z,11.75
2022-11-05T19:00:15.042Z,10.45
2022-11-05T19:03:00.064Z,9.10
2022-11-05T19:05:52.038Z,9.20
2022-11-05T19:08:44.501Z,8.85
2022-11-05T19:11:36.041Z,10.55
2022-11-05T19:14:20.826Z,9.05
2022-11-05T19:17:13.042Z,13.40
2022-11-05T19:19:58.277Z,9.82
2022-11-05T19:22:50.049Z,8.15
2022-11-05T19:25:37.876Z,9.52
2022-11-05T19:28:30.046Z,14.45
2022-11-05T19:31:18.719Z,9.33
2022-11-05T19:34:12.034Z,15.45
2022-11-05T19:37:03.092Z,12.50
2022-11-05T19:39:48.213Z,7.05
2022-11-05T19:42:40.044Z,11.63
2022-11-05T19:45:44.589Z,11.20
2022-11-05T19:48:31.310Z,12.15
2022-11-05T19:51:26.044Z,13.50
2022-11-05T19:54:18.087Z,14.98
2022-11-05T19:57:03.134Z,8.80
2022-11-05T19:59:57.038Z,11.70
2022-11-05T20:02:46.059Z,11.50
2022-11-05T20:05:40.043Z,8.48
2022-11-05T20:08:53.327Z,14.13
2022-11-05T20:11:44.842Z,7.13
2022-11-05T20:14:36.062Z,9.07
2022-11-05T20:17:23.314Z,14.57
2022-11-05T20:20:15.066Z,11.50
2022-11-05T20:23:00.046Z,10.20
2022-11-05T20:25:52.040Z,9.55
2022-11-05T20:28:45.058Z,9.33
2022-11-05T20:31:30.439Z,8.43
2022-11-05T20:34:22.113Z,13.95
2022-11-05T20:37:13.051Z,10.02
2022-11-05T20:39:58.041Z,8.43
2022-11-05T20:42:50.058Z,11.20
2022-11-05T20:45:42.051Z,8.98
2022-11-05T20:48:37.073Z,8.20
2022-11-05T20:51:31.049Z,7.10
2022-11-05T20:54:16.205Z,15.95
2022-11-05T20:57:08.059Z,6.97
2022-11-05T20:59:53.133Z,6.22
2022-11-05T21:02:45.209Z,8.77
2022-11-05T21:05:35.316Z,12.10
2022-11-05T21:08:34.070Z,8.10
2022-11-05T21:11:20.098Z,7.87
2022-11-05T21:14:11.071Z,8.25
2022-11-05T21:16:55.924Z,16.85
2022-11-05T21:19:47.072Z,11.32
2022-11-05T21:22:31.969Z,7.15
2022-11-05T21:25:24.075Z,11.13
2022-11-05T21:28:10.530Z,7.65
2022-11-05T21:31:07.055Z,11.10
2022-11-05T21:33:55.203Z,9.60
2022-11-05T21:36:47.064Z,7.88
2022-11-05T21:39:33.930Z,9.97
2022-11-05T21:42:26.071Z,7.85
2022-11-05T21:45:11.314Z,11.77
2022-11-05T21:48:03.081Z,9.52
2022-11-05T21:51:17.082Z,9.52
2022-11-05T21:54:20.929Z,9.77
2022-11-05T21:57:38.085Z,11.45
2022-11-05T22:00:30.074Z,11.05
2022-11-05T22:03:22.077Z,10.95
2022-11-05T22:06:14.081Z,10.80
2022-11-05T22:09:06.107Z,10.80
2022-11-05T22:11:58.099Z,9.23
2022-11-05T22:14:50.071Z,9.32
2022-11-05T22:17:35.219Z,8.27
2022-11-05T22:20:27.101Z,7.97
2022-11-05T22:23:12.220Z,8.57
2022-11-05T22:26:08.078Z,9.45
2022-11-05T22:29:01.110Z,11.43
2022-11-05T22:31:46.151Z,10.75
2022-11-05T22:34:38.113Z,8.52
2022-11-05T22:37:29.093Z,8.00
2022-11-05T22:40:23.416Z,9.13
2022-11-05T22:43:16.091Z,9.45
2022-11-05T22:46:10.296Z,10.43
2022-11-05T22:49:05.066Z,9.27
2022-11-05T22:51:56.102Z,9.13
2022-11-05T22:54:41.277Z,9.32
2022-11-05T22:57:33.084Z,9.00
2022-11-05T23:00:25.092Z,9.65
2022-11-05T23:03:16.088Z,11.48
2022-11-05T23:06:27.038Z,10.13
2022-11-05T23:09:44.653Z,9.43
2022-11-05T23:12:37.635Z,6.68
2022-11-05T23:15:41.611Z,9.02
2022-11-05T23:18:48.221Z,8.48
2022-11-05T23:21:52.060Z,7.70
2022-11-05T23:24:37.289Z,7.28
2022-11-05T23:27:22.343Z,7.85
2022-11-05T23:30:11.955Z,9.70
2022-11-05T23:32:56.984Z,10.18
2022-11-05T23:36:00.811Z,7.37
2022-11-05T23:38:45.884Z,7.40
2022-11-05T23:41:49.387Z,7.90
2022-11-05T23:44:52.800Z,7.80
2022-11-05T23:47:56.387Z,10.38
2022-11-05T23:50:52.006Z,10.10
2022-11-05T23:53:39.299Z,8.27
2022-11-05T23:56:24.089Z,3.97
2022-11-05T23:59:09.557Z,6.60
